Time;durP1;ratioP1;P1;durP2;ratioP2;P2;SDS_P1;SDS_P2;PMS_P1;PMS_P2;Temp;Humidity;BMP_temperature;BMP_pressure;BME280_temperature;BME280_humidity;BME280_pressure;Samples;Min_cycle;Max_cycle;Signal;HPM_P1;HPM_P2
2021/12/11 00:01:00;;;;;;;11.05;5.47;;;;;;;;;;5116430;28;20059;-73
2021/12/11 00:03:30;;;;;;;8.40;4.10;;;;;;;;;;5116273;28;20147;-73
2021/12/11 00:06:09;;;;;;;9.30;4.47;;;;;;;;;;5116396;28;20039;-72
2021/12/11 00:08:36;;;;;;;10.77;4.55;;;;;;;;;;5116423;28;20027;-70
2021/12/11 00:11:12;;;;;;;12.27;3.75;;;;;;;;;;5116443;28;20051;-74
2021/12/11 00:13:40;;;;;;;9.70;3.65;;;;;;;;;;5115899;28;20062;-73
2021/12/11 00:16:10;;;;;;;11.20;3.78;;;;;;;;;;5116283;28;20024;-74
2021/12/11 00:18:37;;;;;;;11.82;3.75;;;;;;;;;;5116300;28;20035;-73
2021/12/11 00:21:10;;;;;;;11.13;3.88;;;;;;;;;;5115976;28;20472;-75
2021/12/11 00:23:51;;;;;;;10.57;3.58;;;;;;;;;;5116162;28;20114;-73
2021/12/11 00:26:32;;;;;;;11.07;4.28;;;;;;;;;;5115930;28;20046;-73
2021/12/11 00:28:58;;;;;;;8.07;3.97;;;;;;;;;;5116084;28;20031;-73
2021/12/11 00:31:25;;;;;;;10.98;4.55;;;;;;;;;;5109700;28;20043;-70
2021/12/11 00:33:53;;;;;;;12.65;4.60;;;;;;;;;;5116075;28;20031;-74
2021/12/11 00:36:22;;;;;;;10.35;4.00;;;;;;;;;;5115909;28;20027;-70
2021/12/11 00:38:50;;;;;;;9.02;3.97;;;;;;;;;;5115924;28;20023;-72
2021/12/11 00:41:19;;;;;;;15.23;4.78;;;;;;;;;;5115520;28;20023;-74
2021/12/11 00:43:48;;;;;;;10.65;4.50;;;;;;;;;;5115529;28;20031;-71
2021/12/11 00:46:29;;;;;;;12.27;3.97;;;;;;;;;;5115600;28;20077;-71
2021/12/11 00:49:06;;;;;;;9.98;3.83;;;;;;;;;;5115784;28;20074;-74
2021/12/11 00:51:31;;;;;;;6.65;3.42;;;;;;;;;;5115593;28;20031;-71
2021/12/11 00:53:59;;;;;;;9.50;3.67;;;;;;;;;;5115259;28;20034;-71
2021/12/11 00:56:39;;;;;;;8.73;3.78;;;;;;;;;;5115558;28;20027;-73
2021/12/11 00:59:09;;;;;;;8.40;3.78;;;;;;;;;;5115475;28;20038;-72
2021/12/11 01:01:48;;;;;;;8.00;4.10;;;;;;;;;;5115352;28;20042;-70
2021/12/11 01:04:15;;;;;;;7.43;3.42;;;;;;;;;;5115021;28;20499;-73
2021/12/11 01:06:50;;;;;;;8.57;3.47;;;;;;;;;;5115295;28;20480;-71
2021/12/11 01:09:23;;;;;;;8.75;3.38;;;;;;;;;;5115148;27;20031;-71
2021/12/11 01:11:52;;;;;;;6.18;2.90;;;;;;;;;;5115324;28;20027;-73
2021/12/11 01:14:34;;;;;;;7.97;3.40;;;;;;;;;;5115129;28;20034;-73
2021/12/11 01:17:13;;;;;;;9.95;3.30;;;;;;;;;;5115357;28;20028;-71
2021/12/11 01:19:44;;;;;;;6.05;2.70;;;;;;;;;;5115120;28;20052;-73
2021/12/11 01:25:21;;;;;;;8.43;3.25;;;;;;;;;;5106654;28;20036;-71
2021/12/11 01:27:50;;;;;;;10.23;3.10;;;;;;;;;;5113930;28;20098;-70
2021/12/11 01:30:21;;;;;;;8.85;3.05;;;;;;;;;;5108103;28;20054;-74
2021/12/11 01:32:47;;;;;;;8.05;2.85;;;;;;;;;;5114730;28;20032;-71
2021/12/11 01:35:16;;;;;;;7.63;2.90;;;;;;;;;;5114594;28;20097;-73
2021/12/11 01:37:43;;;;;;;8.75;3.10;;;;;;;;;;5114844;28;20035;-72
2021/12/11 01:40:14;;;;;;;12.90;3.40;;;;;;;;;;5114876;28;20035;-74
2021/12/11 01:42:42;;;;;;;8.65;3.05;;;;;;;;;;5114669;28;20035;-74
2021/12/11 01:45:13;;;;;;;11.35;3.58;;;;;;;;;;5114609;28;20023;-71
2021/12/11 01:47:43;;;;;;;7.72;2.85;;;;;;;;;;5114761;28;20023;-70
2021/12/11 01:50:21;;;;;;;9.98;2.90;;;;;;;;;;5114480;28;20024;-74
2021/12/11 01:52:57;;;;;;;7.18;3.00;;;;;;;;;;5114423;28;20024;-72
2021/12/11 01:55:35;;;;;;;8.88;2.95;;;;;;;;;;5114408;28;20028;-73
2021/12/11 01:58:04;;;;;;;9.70;3.80;;;;;;;;;;5114258;28;20059;-73
2021/12/11 02:00:29;;;;;;;7.53;2.92;;;;;;;;;;5114454;28;20023;-72
2021/12/11 02:02:58;;;;;;;6.82;3.08;;;;;;;;;;5114106;28;20050;-73
2021/12/11 02:05:27;;;;;;;4.60;2.75;;;;;;;;;;5114194;28;20076;-71
2021/12/11 02:07:56;;;;;;;7.90;3.00;;;;;;;;;;5113760;28;20077;-74
2021/12/11 02:10:35;;;;;;;8.27;3.25;;;;;;;;;;5114167;28;20028;-75
2021/12/11 02:13:06;;;;;;;7.57;2.83;;;;;;;;;;5114074;28;20038;-70
2021/12/11 02:15:36;;;;;;;;;;;;;;;;;;5114718;28;20023;-71
2021/12/11 02:18:17;;;;;;;9.15;3.30;;;;;;;;;;5114391;28;19911;-72
2021/12/11 02:20:52;;;;;;;7.93;3.10;;;;;;;;;;5113988;28;20040;-71
2021/12/11 02:23:19;;;;;;;8.80;3.20;;;;;;;;;;5112874;28;20031;-73
2021/12/11 02:25:49;;;;;;;8.55;3.30;;;;;;;;;;5114121;28;20144;-71
2021/12/11 02:28:31;;;;;;;9.68;3.38;;;;;;;;;;5113862;28;20023;-73
2021/12/11 02:31:05;;;;;;;6.10;2.95;;;;;;;;;;5106904;28;20165;-71
2021/12/11 02:33:44;;;;;;;7.10;3.45;;;;;;;;;;5113551;28;20027;-73
2021/12/11 02:36:22;;;;;;;8.25;3.20;;;;;;;;;;5113909;28;20023;-74
2021/12/11 02:39:13;;;;;;;6.38;3.10;;;;;;;;;;5113863;28;20384;-71
2021/12/11 02:41:49;;;;;;;7.28;3.40;;;;;;;;;;5112733;28;20024;-69
2021/12/11 02:44:30;;;;;;;8.73;3.10;;;;;;;;;;5113707;28;20039;-72
2021/12/11 02:47:15;;;;;;;6.18;3.55;;;;;;;;;;5113905;28;20028;-72
2021/12/11 02:49:56;;;;;;;7.47;2.60;;;;;;;;;;5113700;28;20443;-70
2021/12/11 02:52:37;;;;;;;7.05;2.72;;;;;;;;;;5113758;28;20064;-74
2021/12/11 02:55:09;;;;;;;;;;;;;;;;;;5114102;28;20055;-74
2021/12/11 02:57:41;;;;;;;5.88;2.60;;;;;;;;;;5113616;28;19911;-70
2021/12/11 03:00:27;;;;;;;7.43;2.40;;;;;;;;;;5113573;28;20455;-74
2021/12/11 03:03:06;;;;;;;5.97;2.53;;;;;;;;;;5113120;28;20094;-72
2021/12/11 03:05:44;;;;;;;7.03;2.65;;;;;;;;;;5113562;28;20471;-71
2021/12/11 03:08:14;;;;;;;6.32;2.80;;;;;;;;;;5113485;28;20028;-73
2021/12/11 03:10:41;;;;;;;;;;;;;;;;;;5114021;28;20539;-71
2021/12/11 03:13:07;;;;;;;6.50;2.60;;;;;;;;;;5113186;28;19933;-70
2021/12/11 03:15:34;;;;;;;7.45;2.22;;;;;;;;;;5113514;28;20050;-72
2021/12/11 03:18:05;;;;;;;5.80;2.50;;;;;;;;;;5113544;28;20068;-71
2021/12/11 03:20:33;;;;;;;4.95;2.20;;;;;;;;;;5115920;28;20047;-73
2021/12/11 03:22:59;;;;;;;6.63;2.58;;;;;;;;;;5117205;28;20429;-73
2021/12/11 03:25:27;;;;;;;6.60;2.63;;;;;;;;;;5117189;28;20054;-74
2021/12/11 03:27:53;;;;;;;4.88;2.35;;;;;;;;;;5117290;28;20456;-73
2021/12/11 03:30:24;;;;;;;5.80;2.17;;;;;;;;;;5109492;28;20043;-74
2021/12/11 03:32:54;;;;;;;4.55;2.28;;;;;;;;;;5117125;28;20376;-72
2021/12/11 03:35:20;;;;;;;6.15;2.25;;;;;;;;;;5116912;28;20084;-74
2021/12/11 03:37:46;;;;;;;4.35;2.03;;;;;;;;;;5117148;28;20077;-72
2021/12/11 03:40:12;;;;;;;6.43;1.95;;;;;;;;;;5116968;28;20112;-73
2021/12/11 03:42:41;;;;;;;5.00;1.88;;;;;;;;;;5115797;28;20050;-75
2021/12/11 03:45:21;;;;;;;4.28;1.90;;;;;;;;;;5116588;28;20482;-73
2021/12/11 03:47:51;;;;;;;5.13;1.77;;;;;;;;;;5117008;28;20467;-74
2021/12/11 03:50:20;;;;;;;3.05;1.70;;;;;;;;;;5116722;28;20063;-70
2021/12/11 03:52:48;;;;;;;5.60;1.75;;;;;;;;;;5116824;28;20054;-73
2021/12/11 03:55:19;;;;;;;4.90;1.60;;;;;;;;;;5116566;28;20023;-72
2021/12/11 03:57:45;;;;;;;4.13;1.70;;;;;;;;;;5116658;28;20126;-73
2021/12/11 04:00:20;;;;;;;3.70;1.70;;;;;;;;;;5116615;28;20107;-70
2021/12/11 04:02:46;;;;;;;4.20;1.60;;;;;;;;;;5116559;28;20061;-70
2021/12/11 04:05:12;;;;;;;2.80;1.38;;;;;;;;;;5116592;28;20051;-73
2021/12/11 04:07:43;;;;;;;3.30;1.83;;;;;;;;;;5116391;28;20027;-73
2021/12/11 04:10:11;;;;;;;3.17;1.60;;;;;;;;;;5116422;28;20031;-73
2021/12/11 04:12:37;;;;;;;2.78;1.50;;;;;;;;;;5116280;28;20024;-73
2021/12/11 04:15:05;;;;;;;5.70;2.03;;;;;;;;;;5116247;28;20028;-70
2021/12/11 04:17:31;;;;;;;3.90;1.52;;;;;;;;;;5116228;28;20030;-72
2021/12/11 04:20:00;;;;;;;3.30;1.40;;;;;;;;;;5116179;28;20040;-71
2021/12/11 04:22:26;;;;;;;6.28;1.73;;;;;;;;;;5115900;28;20049;-73
2021/12/11 04:24:53;;;;;;;6.72;3.15;;;;;;;;;;5116004;28;20023;-69
2021/12/11 04:27:20;;;;;;;3.40;1.98;;;;;;;;;;5116187;28;20020;-71
2021/12/11 04:29:49;;;;;;;4.78;2.10;;;;;;;;;;5112477;28;20103;-74
2021/12/11 04:32:16;;;;;;;5.05;2.20;;;;;;;;;;5111650;28;20019;-72
2021/12/11 04:34:42;;;;;;;5.05;1.90;;;;;;;;;;5115584;28;20019;-71
2021/12/11 04:37:17;;;;;;;2.83;1.90;;;;;;;;;;5115862;28;20484;-71
2021/12/11 04:39:47;;;;;;;3.72;1.67;;;;;;;;;;5115846;27;21180;-71
2021/12/11 04:42:30;;;;;;;3.72;1.38;;;;;;;;;;5115944;28;20096;-72
2021/12/11 04:44:57;;;;;;;3.72;1.50;;;;;;;;;;5115730;28;20027;-72
2021/12/11 04:47:34;;;;;;;2.75;1.40;;;;;;;;;;5115731;28;20028;-70
2021/12/11 04:50:14;;;;;;;4.72;1.15;;;;;;;;;;5115853;28;20034;-73
2021/12/11 04:52:54;;;;;;;2.70;1.30;;;;;;;;;;5115716;28;20030;-72
2021/12/11 05:05:56;;;;;;;3.00;0.80;;;;;;;;;;5115137;28;20023;-73
2021/12/11 05:10:59;;;;;;;2.70;0.80;;;;;;;;;;5115250;28;20034;-70
2021/12/11 05:13:27;;;;;;;2.38;0.93;;;;;;;;;;5115479;28;20521;-74
2021/12/11 05:15:55;;;;;;;1.70;0.88;;;;;;;;;;5115186;28;20027;-71
2021/12/11 05:18:25;;;;;;;2.00;0.93;;;;;;;;;;5115245;28;20024;-71
2021/12/11 05:20:57;;;;;;;3.15;0.88;;;;;;;;;;5114969;28;20054;-71
2021/12/11 05:23:24;;;;;;;1.83;0.88;;;;;;;;;;5115115;28;20106;-71
2021/12/11 05:25:51;;;;;;;2.78;1.00;;;;;;;;;;5114649;28;20027;-71
2021/12/11 05:28:17;;;;;;;2.15;0.90;;;;;;;;;;5114960;28;20429;-70
2021/12/11 05:30:50;;;;;;;2.22;0.90;;;;;;;;;;5114448;28;20055;-72
2021/12/11 05:33:19;;;;;;;3.15;1.00;;;;;;;;;;5115021;28;20024;-73
2021/12/11 05:35:46;;;;;;;3.38;1.10;;;;;;;;;;5114447;28;20027;-69
2021/12/11 05:38:14;;;;;;;3.75;1.00;;;;;;;;;;5114946;28;20167;-71
2021/12/11 05:40:44;;;;;;;4.63;1.05;;;;;;;;;;5114552;28;20106;-73
2021/12/11 05:43:10;;;;;;;1.77;0.90;;;;;;;;;;5113896;28;20024;-72
2021/12/11 05:45:37;;;;;;;2.08;0.85;;;;;;;;;;5114359;28;20038;-70
2021/12/11 05:48:03;;;;;;;6.30;1.10;;;;;;;;;;5114591;28;20050;-72
2021/12/11 05:50:34;;;;;;;1.92;1.10;;;;;;;;;;5114634;27;20432;-69
2021/12/11 05:53:02;;;;;;;1.65;0.90;;;;;;;;;;5113605;28;20023;-70
2021/12/11 05:55:30;;;;;;;4.63;1.42;;;;;;;;;;5114348;28;20024;-70
2021/12/11 05:58:00;;;;;;;2.25;0.90;;;;;;;;;;5114490;28;20020;-70
2021/12/11 06:00:31;;;;;;;2.95;1.23;;;;;;;;;;5114443;28;20034;-71
2021/12/11 06:02:59;;;;;;;4.38;1.05;;;;;;;;;;5114466;28;20059;-72
2021/12/11 06:05:25;;;;;;;2.45;1.30;;;;;;;;;;5114065;28;20023;-73
2021/12/11 06:07:52;;;;;;;3.92;1.70;;;;;;;;;;5114199;28;20114;-70
2021/12/11 06:10:19;;;;;;;2.55;1.20;;;;;;;;;;5114279;28;20464;-71
2021/12/11 06:12:46;;;;;;;2.80;1.20;;;;;;;;;;5114050;28;20020;-75
2021/12/11 06:15:12;;;;;;;5.55;1.48;;;;;;;;;;5113973;28;20036;-69
2021/12/11 06:17:41;;;;;;;1.80;1.17;;;;;;;;;;5114076;28;20420;-69
2021/12/11 06:20:11;;;;;;;1.92;1.17;;;;;;;;;;5113871;28;20127;-69
2021/12/11 06:22:37;;;;;;;5.07;1.33;;;;;;;;;;5113934;28;20055;-73
2021/12/11 06:25:13;;;;;;;4.50;1.40;;;;;;;;;;5112902;28;20028;-70
2021/12/11 06:27:39;;;;;;;2.70;1.20;;;;;;;;;;5114043;28;20478;-71
2021/12/11 06:30:07;;;;;;;3.70;1.60;;;;;;;;;;5113044;28;20028;-72
2021/12/11 06:32:33;;;;;;;3.50;1.40;;;;;;;;;;5113965;28;20047;-70
2021/12/11 06:35:03;;;;;;;4.40;1.60;;;;;;;;;;5113720;28;20032;-71
2021/12/11 06:37:28;;;;;;;7.65;1.70;;;;;;;;;;5113698;28;20029;-70
2021/12/11 06:39:54;;;;;;;4.60;1.50;;;;;;;;;;5113912;28;20375;-72
2021/12/11 06:42:21;;;;;;;5.18;1.73;;;;;;;;;;5113875;28;20059;-75
2021/12/11 06:44:48;;;;;;;5.90;1.40;;;;;;;;;;5113607;28;20099;-74
2021/12/11 06:47:15;;;;;;;2.97;1.27;;;;;;;;;;5113568;28;20028;-70
2021/12/11 06:49:42;;;;;;;4.53;1.40;;;;;;;;;;5114029;28;20100;-70
2021/12/11 06:52:14;;;;;;;3.88;1.40;;;;;;;;;;5113926;28;20147;-74
2021/12/11 06:54:40;;;;;;;3.55;1.30;;;;;;;;;;5117050;28;20031;-69
2021/12/11 06:57:08;;;;;;;5.45;1.25;;;;;;;;;;5117683;28;20029;-74
2021/12/11 06:59:34;;;;;;;3.67;1.40;;;;;;;;;;5116802;28;20031;-74
2021/12/11 07:02:00;;;;;;;4.35;1.58;;;;;;;;;;5117730;27;20058;-72
2021/12/11 07:04:25;;;;;;;5.13;1.50;;;;;;;;;;5117736;28;20027;-72
2021/12/11 07:06:54;;;;;;;6.75;1.20;;;;;;;;;;5117463;28;20042;-69
2021/12/11 07:09:22;;;;;;;4.47;1.15;;;;;;;;;;5117770;28;20027;-69
2021/12/11 07:11:50;;;;;;;5.28;1.17;;;;;;;;;;5117529;28;20114;-71
2021/12/11 07:14:19;;;;;;;1.92;0.90;;;;;;;;;;5117839;27;20050;-71
2021/12/11 07:16:45;;;;;;;2.35;1.00;;;;;;;;;;5117417;28;20058;-72
2021/12/11 07:19:11;;;;;;;3.35;1.17;;;;;;;;;;5117512;28;20515;-71
2021/12/11 07:21:38;;;;;;;3.58;1.20;;;;;;;;;;5116982;28;20048;-73
2021/12/11 07:24:06;;;;;;;4.45;1.20;;;;;;;;;;5117639;28;20169;-74
2021/12/11 07:26:34;;;;;;;4.53;1.30;;;;;;;;;;5117022;28;20036;-71
2021/12/11 07:29:13;;;;;;;2.83;1.20;;;;;;;;;;5117309;28;20515;-73
2021/12/11 07:31:45;;;;;;;2.58;1.25;;;;;;;;;;5115839;28;20020;-71
2021/12/11 07:34:13;;;;;;;4.22;1.40;;;;;;;;;;5117347;28;20031;-73
2021/12/11 07:36:39;;;;;;;3.90;1.30;;;;;;;;;;5116911;28;20027;-72
2021/12/11 07:39:10;;;;;;;2.00;1.20;;;;;;;;;;5117005;28;20032;-72
2021/12/11 07:41:36;;;;;;;2.65;1.20;;;;;;;;;;5117081;28;20410;-73
2021/12/11 07:44:02;;;;;;;2.75;1.23;;;;;;;;;;5116983;28;20040;-73
2021/12/11 07:46:30;;;;;;;4.72;1.75;;;;;;;;;;5116679;28;20110;-73
2021/12/11 07:48:57;;;;;;;3.78;1.30;;;;;;;;;;5116786;27;20059;-73
2021/12/11 07:51:25;;;;;;;3.85;1.50;;;;;;;;;;5116819;28;20030;-73
2021/12/11 07:53:52;;;;;;;3.83;1.60;;;;;;;;;;5116627;28;20067;-71
2021/12/11 07:56:20;;;;;;;4.80;1.50;;;;;;;;;;5116853;28;20027;-71
2021/12/11 07:58:47;;;;;;;3.03;1.48;;;;;;;;;;5116420;28;20467;-71
2021/12/11 08:01:13;;;;;;;4.53;2.10;;;;;;;;;;5116607;28;20375;-72
2021/12/11 08:03:39;;;;;;;3.35;1.80;;;;;;;;;;5116611;28;20027;-70
2021/12/11 08:06:06;;;;;;;5.07;2.10;;;;;;;;;;5115592;28;20031;-71
2021/12/11 08:08:32;;;;;;;3.88;1.83;;;;;;;;;;5116386;28;20036;-70
2021/12/11 08:11:01;;;;;;;3.85;1.80;;;;;;;;;;5116427;28;20380;-73
2021/12/11 08:13:27;;;;;;;3.70;1.80;;;;;;;;;;5116408;28;20051;-72
2021/12/11 08:15:55;;;;;;;4.35;1.95;;;;;;;;;;5116296;28;20027;-73
2021/12/11 08:18:21;;;;;;;5.68;2.50;;;;;;;;;;5116198;28;20023;-74
2021/12/11 08:20:47;;;;;;;6.18;1.73;;;;;;;;;;5115845;28;20152;-71
2021/12/11 08:23:15;;;;;;;4.22;1.70;;;;;;;;;;5115344;28;20089;-72
2021/12/11 08:25:43;;;;;;;4.20;1.80;;;;;;;;;;5116076;28;20038;-72
2021/12/11 08:28:12;;;;;;;5.90;1.70;;;;;;;;;;5115979;28;20099;-71
2021/12/11 08:30:41;;;;;;;4.15;1.83;;;;;;;;;;5114272;28;20460;-70
2021/12/11 08:33:07;;;;;;;5.03;2.20;;;;;;;;;;5116396;28;20059;-71
2021/12/11 08:35:33;;;;;;;6.28;2.10;;;;;;;;;;5115951;28;20484;-72
2021/12/11 08:37:59;;;;;;;5.47;2.20;;;;;;;;;;5115715;28;20464;-71
2021/12/11 08:40:31;;;;;;;4.72;2.10;;;;;;;;;;5115880;28;20030;-74
2021/12/11 08:42:58;;;;;;;3.80;1.92;;;;;;;;;;5115813;28;20040;-73
2021/12/11 08:45:43;;;;;;;4.43;1.73;;;;;;;;;;5115760;28;20023;-73
2021/12/11 08:48:10;;;;;;;4.82;2.45;;;;;;;;;;5115685;28;20053;-72
2021/12/11 08:50:36;;;;;;;5.75;2.40;;;;;;;;;;5115698;28;20433;-73
2021/12/11 08:53:02;;;;;;;6.40;2.33;;;;;;;;;;5115516;28;20126;-70
2021/12/11 08:55:37;;;;;;;7.38;2.70;;;;;;;;;;5115683;28;20468;-74
2021/12/11 08:58:05;;;;;;;4.07;2.25;;;;;;;;;;5115209;28;20043;-71
2021/12/11 09:00:34;;;;;;;6.53;2.50;;;;;;;;;;5115546;28;20028;-69
2021/12/11 09:03:10;;;;;;;4.03;2.10;;;;;;;;;;5115375;28;20492;-71
2021/12/11 09:05:47;;;;;;;3.70;2.28;;;;;;;;;;5115421;28;20035;-71
2021/12/11 09:08:16;;;;;;;7.93;2.65;;;;;;;;;;5115249;28;20028;-70
2021/12/11 09:11:10;;;;;;;6.43;2.75;;;;;;;;;;5115157;28;20059;-74
2021/12/11 09:13:38;;;;;;;5.93;2.58;;;;;;;;;;5111050;28;20039;-72
2021/12/11 09:16:08;;;;;;;7.47;3.60;;;;;;;;;;5115165;28;20036;-74
2021/12/11 09:18:49;;;;;;;5.55;2.63;;;;;;;;;;5114773;28;20024;-73
2021/12/11 09:21:21;;;;;;;6.32;2.40;;;;;;;;;;5114952;28;20081;-72
2021/12/11 09:24:02;;;;;;;5.55;2.10;;;;;;;;;;5114289;28;20051;-71
2021/12/11 09:26:39;;;;;;;5.93;2.20;;;;;;;;;;5115064;28;20561;-69
2021/12/11 09:29:33;;;;;;;6.32;2.83;;;;;;;;;;5114551;28;20042;-73
2021/12/11 09:32:34;;;;;;;5.82;2.40;;;;;;;;;;5113966;28;20028;-71
2021/12/11 09:35:08;;;;;;;7.97;2.30;;;;;;;;;;5114686;28;20032;-71
2021/12/11 09:37:35;;;;;;;7.07;2.75;;;;;;;;;;5114706;28;20479;-70
2021/12/11 09:40:09;;;;;;;7.07;2.40;;;;;;;;;;5114619;28;20426;-70
2021/12/11 09:42:34;;;;;;;6.90;3.00;;;;;;;;;;5114664;28;20119;-72
2021/12/11 09:45:11;;;;;;;4.88;2.40;;;;;;;;;;5114642;28;20059;-70
2021/12/11 09:47:41;;;;;;;5.55;2.28;;;;;;;;;;5114592;28;20039;-73
2021/12/11 09:50:14;;;;;;;4.97;2.33;;;;;;;;;;5114913;28;20032;-72
2021/12/11 09:52:43;;;;;;;4.90;2.38;;;;;;;;;;5114835;28;20134;-74
2021/12/11 09:55:15;;;;;;;6.00;3.03;;;;;;;;;;5114557;28;20472;-71
2021/12/11 09:57:43;;;;;;;5.85;2.10;;;;;;;;;;5113162;28;20460;-72
2021/12/11 10:00:17;;;;;;;6.68;2.33;;;;;;;;;;5114339;28;20042;-72
2021/12/11 10:02:43;;;;;;;5.10;2.00;;;;;;;;;;5114182;28;20115;-71
2021/12/11 10:05:31;;;;;;;5.18;1.90;;;;;;;;;;5114409;28;20066;-72
2021/12/11 10:11:01;;;;;;;8.98;3.13;;;;;;;;;;5102738;28;20441;-71
2021/12/11 10:13:30;;;;;;;26.88;12.25;;;;;;;;;;5114186;28;20031;-72
2021/12/11 10:15:56;;;;;;;31.25;14.35;;;;;;;;;;5114121;28;20455;-71
2021/12/11 10:18:24;;;;;;;28.23;11.70;;;;;;;;;;5113759;28;20039;-72
2021/12/11 10:21:33;;;;;;;23.73;12.07;;;;;;;;;;5113740;28;20047;-70
2021/12/11 10:24:02;;;;;;;19.17;9.80;;;;;;;;;;5071649;28;20032;-71
2021/12/11 10:26:28;;;;;;;15.77;7.55;;;;;;;;;;5105488;28;20046;-73
2021/12/11 10:28:59;;;;;;;14.68;6.65;;;;;;;;;;5113215;28;20019;-74
2021/12/11 10:31:35;;;;;;;11.45;5.15;;;;;;;;;;5111012;28;20024;-70
2021/12/11 10:34:04;;;;;;;8.90;4.68;;;;;;;;;;5113919;28;20447;-72
2021/12/11 10:36:33;;;;;;;9.32;3.92;;;;;;;;;;5113879;28;20024;-73
2021/12/11 10:39:02;;;;;;;5.82;2.80;;;;;;;;;;5113571;28;20032;-75
2021/12/11 10:41:30;;;;;;;8.27;3.30;;;;;;;;;;5113835;28;20031;-71
2021/12/11 10:44:12;;;;;;;7.25;3.17;;;;;;;;;;5113644;28;20097;-71
2021/12/11 10:46:43;;;;;;;12.48;4.60;;;;;;;;;;5114259;28;20449;-71
2021/12/11 10:49:11;;;;;;;23.88;9.32;;;;;;;;;;5113479;28;20369;-71
2021/12/11 10:51:43;;;;;;;17.65;7.55;;;;;;;;;;5113861;28;20032;-72
2021/12/11 10:54:10;;;;;;;17.35;6.35;;;;;;;;;;5113619;28;20039;-73
2021/12/11 10:56:37;;;;;;;19.20;6.78;;;;;;;;;;5113799;28;20463;-70
2021/12/11 10:59:12;;;;;;;13.15;5.15;;;;;;;;;;5113552;28;20040;-72
2021/12/11 11:01:44;;;;;;;8.63;3.33;;;;;;;;;;5113668;28;20042;-73
2021/12/11 11:04:15;;;;;;;12.18;3.10;;;;;;;;;;5113520;28;20127;-72
2021/12/11 11:06:42;;;;;;;6.32;2.78;;;;;;;;;;5113613;28;20055;-71
2021/12/11 11:09:09;;;;;;;17.00;5.93;;;;;;;;;;5113613;28;20115;-72
2021/12/11 11:11:37;;;;;;;12.45;4.82;;;;;;;;;;5113424;28;20032;-74
2021/12/11 11:14:07;;;;;;;13.57;3.63;;;;;;;;;;5113333;28;20042;-73
2021/12/11 11:16:35;;;;;;;8.05;2.70;;;;;;;;;;5113418;28;20031;-69
2021/12/11 11:19:01;;;;;;;20.10;6.68;;;;;;;;;;5113162;28;20031;-70
2021/12/11 11:21:35;;;;;;;21.85;6.82;;;;;;;;;;5113242;28;20071;-74
2021/12/11 11:24:03;;;;;;;18.92;5.90;;;;;;;;;;5113225;28;20028;-72
2021/12/11 11:26:35;;;;;;;18.58;5.90;;;;;;;;;;5113516;28;20456;-74
2021/12/11 11:29:03;;;;;;;15.05;4.80;;;;;;;;;;5113105;28;20035;-70
2021/12/11 11:31:36;;;;;;;11.55;3.80;;;;;;;;;;5109016;28;20038;-74
2021/12/11 11:34:09;;;;;;;7.25;2.35;;;;;;;;;;5113239;28;20039;-72
2021/12/11 11:36:36;;;;;;;4.97;1.92;;;;;;;;;;5113392;28;20024;-73
2021/12/11 11:39:08;;;;;;;4.63;1.55;;;;;;;;;;5112891;28;20032;-70
2021/12/11 11:41:59;;;;;;;12.63;4.43;;;;;;;;;;5116082;28;20020;-72
2021/12/11 11:44:27;;;;;;;11.95;5.10;;;;;;;;;;5111163;28;20043;-72
2021/12/11 11:46:56;;;;;;;11.50;4.72;;;;;;;;;;5116762;28;20032;-74
2021/12/11 11:49:22;;;;;;;12.98;5.40;;;;;;;;;;5116524;28;20054;-75
2021/12/11 11:51:53;;;;;;;7.30;3.30;;;;;;;;;;5116835;28;20031;-72
2021/12/11 11:54:22;;;;;;;6.30;2.60;;;;;;;;;;5116898;28;20429;-73
2021/12/11 11:56:56;;;;;;;5.88;2.65;;;;;;;;;;5116688;28;20019;-72
2021/12/11 11:59:22;;;;;;;6.50;2.75;;;;;;;;;;5116425;28;20024;-72
2021/12/11 12:01:53;;;;;;;6.75;2.72;;;;;;;;;;5116699;28;20035;-72
2021/12/11 12:04:21;;;;;;;5.97;2.83;;;;;;;;;;5116794;28;20031;-72
2021/12/11 12:06:53;;;;;;;8.63;2.97;;;;;;;;;;5116599;28;20395;-72
2021/12/11 12:09:21;;;;;;;8.32;3.22;;;;;;;;;;5116480;28;20470;-71
2021/12/11 12:11:47;;;;;;;6.45;2.80;;;;;;;;;;5116668;28;20085;-70
2021/12/11 12:14:19;;;;;;;8.93;3.05;;;;;;;;;;5116487;28;20031;-74
2021/12/11 12:16:47;;;;;;;9.40;3.05;;;;;;;;;;5116323;28;20054;-73
2021/12/11 12:19:14;;;;;;;8.07;2.80;;;;;;;;;;5116107;28;20031;-73
2021/12/11 12:21:42;;;;;;;5.18;1.80;;;;;;;;;;5116031;28;20040;-69
2021/12/11 12:24:08;;;;;;;4.28;1.40;;;;;;;;;;5116176;28;20023;-72
2021/12/11 12:26:36;;;;;;;6.97;2.55;;;;;;;;;;5116138;28;20074;-72
2021/12/11 12:29:05;;;;;;;2.55;1.17;;;;;;;;;;5115750;28;20357;-72
2021/12/11 12:31:39;;;;;;;3.42;1.20;;;;;;;;;;5112316;28;20076;-74
2021/12/11 12:34:06;;;;;;;7.30;1.60;;;;;;;;;;5115844;28;20031;-69
2021/12/11 12:36:33;;;;;;;4.78;2.05;;;;;;;;;;5116036;28;20036;-73
2021/12/11 12:38:58;;;;;;;10.02;2.47;;;;;;;;;;5115716;28;20031;-74
2021/12/11 12:41:24;;;;;;;6.05;2.30;;;;;;;;;;5115821;28;20158;-73
2021/12/11 12:46:42;;;;;;;5.05;2.40;;;;;;;;;;5115794;28;20031;-73
2021/12/11 12:49:09;;;;;;;5.82;2.40;;;;;;;;;;5115470;28;20020;-73
2021/12/11 12:51:36;;;;;;;4.97;2.10;;;;;;;;;;5115722;28;20054;-71
2021/12/11 12:54:04;;;;;;;5.85;2.00;;;;;;;;;;5115464;28;20050;-72
2021/12/11 12:56:51;;;;;;;3.85;1.33;;;;;;;;;;5115696;28;20046;-71
2021/12/11 12:59:25;;;;;;;3.15;1.48;;;;;;;;;;5115297;28;20369;-72
2021/12/11 13:02:18;;;;;;;3.15;1.30;;;;;;;;;;5115385;28;20031;-72
2021/12/11 13:04:52;;;;;;;2.80;1.13;;;;;;;;;;5115342;28;20120;-71
2021/12/11 13:07:18;;;;;;;2.80;1.17;;;;;;;;;;5115887;28;20100;-70
2021/12/11 13:09:54;;;;;;;2.67;1.17;;;;;;;;;;5114775;28;20028;-72
2021/12/11 13:12:29;;;;;;;2.08;1.00;;;;;;;;;;5115540;27;20476;-73
2021/12/11 13:14:58;;;;;;;4.22;0.95;;;;;;;;;;5115243;28;20024;-71
2021/12/11 13:17:28;;;;;;;3.38;1.30;;;;;;;;;;5115172;28;20437;-73
2021/12/11 13:20:02;;;;;;;2.72;1.20;;;;;;;;;;5114765;28;20047;-70
2021/12/11 13:22:38;;;;;;;3.08;1.40;;;;;;;;;;5114945;28;20043;-71
2021/12/11 13:25:14;;;;;;;3.90;1.50;;;;;;;;;;5114916;28;20102;-72
2021/12/11 13:27:42;;;;;;;3.58;1.40;;;;;;;;;;5115006;28;20533;-73
2021/12/11 13:30:15;;;;;;;2.42;1.30;;;;;;;;;;5109323;28;20051;-72
2021/12/11 13:32:41;;;;;;;4.80;1.52;;;;;;;;;;5114923;28;20095;-70
2021/12/11 13:35:13;;;;;;;3.53;1.40;;;;;;;;;;5114851;28;20020;-72
2021/12/11 13:37:39;;;;;;;3.75;1.40;;;;;;;;;;5114894;28;20035;-74
2021/12/11 13:40:10;;;;;;;3.33;1.13;;;;;;;;;;5113608;28;20024;-71
2021/12/11 13:42:37;;;;;;;5.15;1.10;;;;;;;;;;5113698;28;20023;-73
2021/12/11 13:45:22;;;;;;;2.42;1.30;;;;;;;;;;5114524;28;20030;-71
2021/12/11 13:47:49;;;;;;;3.65;1.40;;;;;;;;;;5114799;28;20100;-70
2021/12/11 13:50:23;;;;;;;3.53;1.40;;;;;;;;;;5114185;28;20097;-73
2021/12/11 13:52:49;;;;;;;2.33;0.95;;;;;;;;;;5114499;28;20034;-72
2021/12/11 13:55:17;;;;;;;2.97;1.10;;;;;;;;;;5114372;28;20024;-71
2021/12/11 13:57:42;;;;;;;5.95;2.28;;;;;;;;;;5114291;28;20027;-70
2021/12/11 14:00:30;;;;;;;6.97;3.28;;;;;;;;;;5114340;28;20020;-73
2021/12/11 14:02:56;;;;;;;11.75;5.57;;;;;;;;;;5113457;27;20055;-73
2021/12/11 14:05:22;;;;;;;16.27;6.50;;;;;;;;;;5114332;28;20104;-72
2021/12/11 14:07:49;;;;;;;14.07;5.25;;;;;;;;;;5114238;28;20027;-74
2021/12/11 14:10:31;;;;;;;9.90;3.10;;;;;;;;;;5113880;28;20030;-70
2021/12/11 14:12:59;;;;;;;12.52;5.00;;;;;;;;;;5114249;28;20023;-72
2021/12/11 14:15:26;;;;;;;14.38;5.53;;;;;;;;;;5114300;28;20041;-71
2021/12/11 14:17:52;;;;;;;11.07;4.82;;;;;;;;;;5114327;28;20080;-71
2021/12/11 14:20:20;;;;;;;10.43;3.58;;;;;;;;;;5113613;28;20075;-71
2021/12/11 14:22:47;;;;;;;15.68;4.65;;;;;;;;;;5114261;28;20047;-73
2021/12/11 14:25:16;;;;;;;7.35;3.35;;;;;;;;;;5113891;28;20035;-69
2021/12/11 14:27:42;;;;;;;9.77;3.92;;;;;;;;;;5113815;28;20031;-71
2021/12/11 14:30:11;;;;;;;11.93;2.85;;;;;;;;;;5108973;28;20032;-73
2021/12/11 14:32:50;;;;;;;5.93;3.35;;;;;;;;;;5113907;28;20058;-72
2021/12/11 14:35:17;;;;;;;2.90;1.65;;;;;;;;;;5112890;28;20049;-71
2021/12/11 14:37:43;;;;;;;3.80;1.38;;;;;;;;;;5113827;28;20036;-70
2021/12/11 14:40:15;;;;;;;1.98;1.20;;;;;;;;;;5113660;28;20032;-73
2021/12/11 14:42:42;;;;;;;6.72;2.90;;;;;;;;;;5113880;28;20114;-70
2021/12/11 14:45:16;;;;;;;2.33;1.30;;;;;;;;;;5113601;28;20064;-69
2021/12/11 14:47:43;;;;;;;2.63;1.42;;;;;;;;;;5113858;28;20035;-72
2021/12/11 14:50:10;;;;;;;4.45;2.33;;;;;;;;;;5113456;28;20061;-71
2021/12/11 14:52:36;;;;;;;4.18;1.80;;;;;;;;;;5113861;28;20475;-73
2021/12/11 14:55:09;;;;;;;4.63;2.15;;;;;;;;;;5113530;28;20024;-70
2021/12/11 14:57:35;;;;;;;3.40;1.60;;;;;;;;;;5113854;28;20461;-72
2021/12/11 15:00:08;;;;;;;2.45;1.10;;;;;;;;;;5113185;28;20038;-73
2021/12/11 15:02:38;;;;;;;2.80;1.60;;;;;;;;;;5113775;28;20045;-73
2021/12/11 15:05:11;;;;;;;13.15;5.93;;;;;;;;;;5113917;28;20063;-73
2021/12/11 15:07:38;;;;;;;19.88;9.27;;;;;;;;;;5113711;28;20111;-72
2021/12/11 15:10:12;;;;;;;11.73;5.05;;;;;;;;;;5113167;28;20042;-70
2021/12/11 15:12:38;;;;;;;13.75;5.35;;;;;;;;;;5113711;28;20571;-72
2021/12/11 15:15:06;;;;;;;8.07;3.40;;;;;;;;;;5115545;28;20059;-71
2021/12/11 15:17:31;;;;;;;6.18;2.45;;;;;;;;;;5117730;28;20104;-70
2021/12/11 15:20:03;;;;;;;4.25;1.60;;;;;;;;;;5117190;28;20079;-69
2021/12/11 15:22:28;;;;;;;3.58;1.40;;;;;;;;;;5117316;28;20115;-73